Terminal Aerodrome Forecast
Issued by NWS

Home | Current Version | Previous Version | Text Only | Print | Product List | Glossary On
Versions: 1 2 3 4 5 6 7 8 9 10 11 12 13 14 15 16 17 18 19 20
000
FTUS45 KFGZ 250520
TAFGCN
TAF
KGCN 250520Z 2506/2606 VRB05KT P6SM BKN045 OVC080
     FM251800 21010G18KT P6SM SCT030 BKN050 OVC090
      TEMPO 2520/2524 5SM -SHRA BKN035 OVC060
     FM260300 VRB03KT P6SM SCT050=

USA.gov is the U.S. government's official web portal to all federal, state and local government web resources and services.